Time;durP1;ratioP1;P1;durP2;ratioP2;P2;SDS_P1;SDS_P2;PMS_P1;PMS_P2;Temp;Humidity;BMP_temperature;BMP_pressure;BME280_temperature;BME280_humidity;BME280_pressure;Samples;Min_cycle;Max_cycle;Signal;HPM_P1;HPM_P2
2021/01/17 00:00:12;;;;;;;;;;;;;;;;;;;;;
2021/01/17 00:06:08;;;;;;;;;;;;;;;;;;;;;
2021/01/17 00:09:30;;;;;;;30.50;19.88;;;1.60;90.60;;;;;;6254109;22;20389;-89
2021/01/17 00:12:35;;;;;;;28.77;18.80;;;1.60;90.60;;;;;;6269184;22;20038;-88
2021/01/17 00:15:16;;;;;;;27.52;17.85;;;1.60;90.60;;;;;;6240078;22;20008;-87
2021/01/17 00:21:54;;;;;;;;;;;;;;;;;;;;;
2021/01/17 00:24:46;;;;;;;30.38;19.52;;;1.70;90.70;;;;;;6236135;22;20083;-86
2021/01/17 00:28:02;;;;;;;;;;;;;;;;;;;;;
2021/01/17 00:30:35;;;;;;;29.20;18.75;;;1.60;90.70;;;;;;6278582;22;20086;-88
2021/01/17 00:33:35;;;;;;;31.77;19.17;;;1.60;90.70;;;;;;6277274;22;20006;-89
2021/01/17 00:36:30;;;;;;;29.27;19.67;;;1.60;90.70;;;;;;6245545;22;20319;-88
2021/01/17 00:39:10;;;;;;;30.50;19.45;;;1.70;90.70;;;;;;6254806;22;20008;-88
2021/01/17 00:41:44;;;;;;;31.50;19.40;;;1.60;90.70;;;;;;6276700;22;20012;-88
2021/01/17 00:47:22;;;;;;;;;;;;;;;;;;;;;
2021/01/17 00:53:34;;;;;;;;;;;;;;;;;;;;;
2021/01/17 00:56:09;;;;;;;27.27;18.25;;;1.70;90.80;;;;;;6104536;23;20107;-88
2021/01/17 00:59:05;;;;;;;30.25;17.88;;;1.70;90.80;;;;;;6123541;23;20082;-90
2021/01/17 01:02:04;;;;;;;;;;;;;;;;;;;;;
2021/01/17 01:08:10;;;;;;;;;;;;;;;;;;;;;
2021/01/17 01:11:09;;;;;;;32.15;19.50;;;1.70;90.80;;;;;;6276182;22;20118;-88
2021/01/17 01:14:43;;;;;;;;;;;;;;;;;;;;;
2021/01/17 01:20:41;;;;;;;34.00;20.38;;;1.70;90.80;;;;;;6217390;22;20039;-89
2021/01/17 01:23:43;;;;;;;;;;;;;;;;;;;;;
2021/01/17 01:26:30;;;;;;;32.28;19.55;;;1.60;90.80;;;;;;6152736;23;20097;-88
2021/01/17 01:29:42;;;;;;;27.48;18.23;;;1.70;90.80;;;;;;6128349;23;20423;-88
2021/01/17 01:36:00;;;;;;;31.48;19.88;;;1.70;90.80;;;;;;6260649;22;20022;-88
2021/01/17 01:38:47;;;;;;;;;;;;;;;;;;;;;
2021/01/17 01:41:40;;;;;;;29.80;18.92;;;1.70;90.80;;;;;;6177697;22;20088;-86
2021/01/17 01:45:19;;;;;;;32.03;19.38;;;1.70;90.80;;;;;;6275352;22;20004;-88
2021/01/17 01:48:08;;;;;;;34.45;19.95;;;1.70;90.80;;;;;;6243680;22;19999;-88
2021/01/17 01:50:55;;;;;;;32.83;20.10;;;1.70;90.80;;;;;;6252348;22;20014;-88
2021/01/17 01:53:51;;;;;;;31.40;18.90;;;1.70;90.80;;;;;;6275348;22;20014;-89
2021/01/17 01:56:50;;;;;;;;;;;;;;;;;;;;;
2021/01/17 02:02:23;;;;;;;33.33;20.52;;;1.70;90.80;;;;;;6210483;22;20013;-90
2021/01/17 02:05:16;;;;;;;;;;;;;;;;;;;;;
2021/01/17 02:08:35;;;;;;;38.05;20.92;;;1.70;90.90;;;;;;6276477;22;20082;-88
2021/01/17 02:11:23;;;;;;;;;;;;;;;;;;;;;
2021/01/17 02:14:08;;;;;;;31.67;19.02;;;1.70;90.90;;;;;;6276500;22;20571;-89
2021/01/17 02:17:13;;;;;;;39.30;21.13;;;1.70;90.90;;;;;;6277850;22;20348;-87
2021/01/17 02:20:16;;;;;;;33.50;19.48;;;1.70;90.90;;;;;;6276003;22;20000;-89
2021/01/17 02:26:02;;;;;;;34.03;19.83;;;1.70;91.20;;;;;;6260727;22;20468;-89
2021/01/17 02:28:33;;;;;;;39.08;19.77;;;1.70;90.90;;;;;;6276329;22;20010;-88
2021/01/17 02:31:19;;;;;;;;;;;;;;;;;;;;;
2021/01/17 02:34:36;;;;;;;;;;;;;;;;;;;;;
2021/01/17 02:37:52;;;;;;;;;;;;;;;;;;;;;
2021/01/17 02:41:12;;;;;;;;;;;;;;;;;;;;;
2021/01/17 02:43:52;;;;;;;;;;;;;;;;;;;;;
2021/01/17 02:46:39;;;;;;;33.47;19.73;;;1.80;91.10;;;;;;6276676;22;20051;-90
2021/01/17 02:49:12;;;;;;;33.45;20.40;;;1.80;91.40;;;;;;6252495;22;20004;-90
2021/01/17 02:51:51;;;;;;;;;;;;;;;;;;;;;
2021/01/17 02:54:32;;;;;;;35.15;19.98;;;1.70;91.20;;;;;;6277206;22;20500;-88
2021/01/17 02:57:19;;;;;;;34.22;19.23;;;1.80;91.20;;;;;;6276333;22;20003;-87
2021/01/17 03:00:15;;;;;;;35.28;20.13;;;1.80;91.20;;;;;;6275989;22;20381;-88
2021/01/17 03:03:24;;;;;;;35.75;19.65;;;1.80;91.20;;;;;;6275277;22;20011;-91
2021/01/17 03:05:57;;;;;;;37.97;20.70;;;1.80;91.30;;;;;;6275282;22;20028;-87
2021/01/17 03:08:54;;;;;;;;;;;;;;;;;;;;;
2021/01/17 03:11:45;;;;;;;35.13;19.45;;;1.80;91.30;;;;;;6159485;23;20084;-87
2021/01/17 03:14:42;;;;;;;;;;;;;;;;;;;;;
2021/01/17 03:20:51;;;;;;;33.85;19.95;;;1.80;91.30;;;;;;6228096;22;20011;-88
2021/01/17 03:23:37;;;;;;;36.70;20.10;;;1.80;91.30;;;;;;6249791;22;20023;-89
2021/01/17 03:29:28;;;;;;;33.78;18.55;;;1.80;91.30;;;;;;6255204;22;20008;-88
2021/01/17 03:32:05;;;;;;;35.10;20.10;;;1.80;91.30;;;;;;6253469;22;20015;-89
2021/01/17 03:35:11;;;;;;;;;;;;;;;;;;;;;
2021/01/17 03:37:45;;;;;;;30.83;18.20;;;1.80;91.40;;;;;;6277874;22;20415;-89
2021/01/17 03:40:36;;;;;;;35.03;19.15;;;1.80;91.40;;;;;;6277935;22;20002;-89
2021/01/17 03:43:28;;;;;;;34.28;18.85;;;1.80;91.40;;;;;;6276292;22;20061;-90
2021/01/17 03:46:53;;;;;;;32.63;19.02;;;1.80;91.40;;;;;;6277355;22;20478;-88
2021/01/17 03:49:28;;;;;;;30.58;17.63;;;1.80;91.40;;;;;;6270510;22;20004;-88
2021/01/17 03:52:10;;;;;;;30.38;17.80;;;1.80;91.40;;;;;;6251373;22;20004;-89
2021/01/17 03:54:53;;;;;;;31.35;18.15;;;1.80;91.50;;;;;;6249860;22;20042;-89
2021/01/17 03:57:21;;;;;;;29.70;17.83;;;1.80;91.50;;;;;;6276629;22;20444;-89
2021/01/17 04:00:09;;;;;;;;;;;;;;;;;;;;;
2021/01/17 04:02:47;;;;;;;31.65;17.30;;;1.80;91.50;;;;;;6278066;22;20084;-89
2021/01/17 04:05:18;;;;;;;29.20;17.77;;;1.80;91.50;;;;;;6252363;22;20079;-87
2021/01/17 04:07:51;;;;;;;29.67;17.45;;;1.80;91.50;;;;;;6276715;22;20003;-87
2021/01/17 04:13:16;;;;;;;30.55;17.95;;;1.90;91.60;;;;;;6275248;22;20047;-88
2021/01/17 04:15:53;;;;;;;30.10;18.10;;;1.90;91.60;;;;;;6250072;22;20004;-86
2021/01/17 04:18:35;;;;;;;32.75;18.48;;;1.90;91.60;;;;;;6275256;22;20019;-89
2021/01/17 04:21:09;;;;;;;29.15;16.67;;;1.90;91.60;;;;;;6228230;22;20337;-86
2021/01/17 04:23:46;;;;;;;28.17;16.70;;;1.90;91.60;;;;;;6250018;22;20182;-87
2021/01/17 04:26:15;;;;;;;28.10;16.55;;;1.90;91.60;;;;;;6251478;22;20011;-87
2021/01/17 04:28:52;;;;;;;29.33;17.17;;;1.90;91.60;;;;;;6275253;22;20343;-85
2021/01/17 04:31:21;;;;;;;30.35;17.80;;;1.90;91.60;;;;;;6277023;22;20000;-88
2021/01/17 04:34:02;;;;;;;;;;;;;;;;;;;;;
2021/01/17 04:36:44;;;;;;;;;;;;;;;;;;;;;
2021/01/17 04:39:19;;;;;;;28.83;17.58;;;1.90;91.70;;;;;;6275314;22;20366;-88
2021/01/17 04:41:58;;;;;;;28.05;17.02;;;1.90;91.70;;;;;;6275712;22;20085;-87
2021/01/17 04:44:38;;;;;;;28.15;16.77;;;1.90;91.70;;;;;;6275544;22;19999;-88
2021/01/17 04:47:25;;;;;;;25.38;15.75;;;1.90;91.70;;;;;;6274241;22;20007;-87
2021/01/17 04:50:15;;;;;;;26.15;16.35;;;1.90;91.70;;;;;;6274612;22;20014;-89
2021/01/17 04:53:09;;;;;;;26.90;16.23;;;1.90;91.70;;;;;;6275665;22;20011;-87
2021/01/17 04:55:49;;;;;;;26.40;15.52;;;1.90;91.70;;;;;;6254310;22;20616;-87
2021/01/17 04:58:25;;;;;;;25.80;16.33;;;1.90;91.70;;;;;;6250524;22;20004;-86
2021/01/17 05:01:02;;;;;;;25.50;14.82;;;1.90;91.70;;;;;;6275885;22;20006;-87
2021/01/17 05:04:26;;;;;;;24.25;15.07;;;1.90;91.70;;;;;;6276478;22;20000;-87
2021/01/17 05:07:00;;;;;;;23.13;15.40;;;1.90;91.70;;;;;;6275342;22;20053;-90
2021/01/17 05:09:30;;;;;;;25.48;15.18;;;1.90;91.70;;;;;;6275375;22;20456;-87
2021/01/17 05:12:15;;;;;;;22.88;14.82;;;1.90;91.70;;;;;;6277341;22;20000;-87
2021/01/17 05:15:01;;;;;;;;;;;;;;;;;;;;;
2021/01/17 05:17:49;;;;;;;23.90;14.80;;;1.90;91.80;;;;;;6276313;22;20095;-87
2021/01/17 05:20:29;;;;;;;23.55;14.70;;;1.90;91.80;;;;;;6275045;22;20417;-87
2021/01/17 05:23:10;;;;;;;23.48;14.77;;;1.90;91.80;;;;;;6275003;22;20011;-87
2021/01/17 05:25:44;;;;;;;23.75;14.90;;;1.90;91.80;;;;;;6275886;22;20038;-87
2021/01/17 05:28:25;;;;;;;;;;;;;;;;;;;;;
2021/01/17 05:31:33;;;;;;;21.70;14.25;;;1.90;91.80;;;;;;6276148;22;20443;-87
2021/01/17 05:34:09;;;;;;;22.88;14.25;;;2.00;91.90;;;;;;6274800;22;20058;-87
2021/01/17 05:36:35;;;;;;;22.15;14.48;;;1.90;91.80;;;;;;6274623;22;20481;-88
2021/01/17 05:39:17;;;;;;;22.08;13.52;;;1.90;91.90;;;;;;6274144;22;20091;-87
2021/01/17 05:41:55;;;;;;;24.30;14.77;;;2.00;91.90;;;;;;6275250;22;20012;-88
2021/01/17 05:44:44;;;;;;;22.15;13.90;;;2.00;91.90;;;;;;6275032;22;20003;-87
2021/01/17 05:47:29;;;;;;;21.77;14.07;;;1.90;91.90;;;;;;6251326;22;20324;-88
2021/01/17 05:53:14;;;;;;;24.65;14.80;;;2.00;91.90;;;;;;6276346;22;20012;-87
2021/01/17 05:56:19;;;;;;;24.20;14.63;;;2.00;91.90;;;;;;6276359;22;20003;-89
2021/01/17 05:59:14;;;;;;;22.50;13.60;;;2.00;91.90;;;;;;6252618;22;20035;-88
2021/01/17 06:02:14;;;;;;;23.63;13.63;;;2.00;91.90;;;;;;6275490;22;20007;-86
2021/01/17 06:05:05;;;;;;;23.02;14.52;;;2.00;91.90;;;;;;6276006;22;20010;-88
2021/01/17 06:07:32;;;;;;;21.50;13.43;;;2.00;91.90;;;;;;6275968;22;19995;-88
2021/01/17 06:10:09;;;;;;;19.75;13.02;;;2.00;91.90;;;;;;6274958;22;20008;-88
2021/01/17 06:12:51;;;;;;;;;;;;;;;;;;;;;
2021/01/17 06:15:17;;;;;;;20.25;13.52;;;2.00;91.90;;;;;;6277075;22;20083;-86
2021/01/17 06:21:09;;;;;;;20.65;13.13;;;2.10;92.00;;;;;;6242971;22;20011;-91
2021/01/17 06:24:11;;;;;;;21.63;12.95;;;2.00;91.90;;;;;;6275147;22;20010;-87
2021/01/17 06:26:43;;;;;;;;;;;2.10;92.00;;;;;;6269824;22;20437;-88
2021/01/17 06:29:39;;;;;;;22.60;13.15;;;2.10;92.00;;;;;;6275246;22;19952;-88
2021/01/17 06:32:49;;;;;;;21.60;14.02;;;2.10;92.00;;;;;;6254508;22;20039;-88
2021/01/17 06:36:05;;;;;;;;;;;;;;;;;;;;;
2021/01/17 06:38:46;;;;;;;;;;;;;;;;;;;;;
2021/01/17 06:41:18;;;;;;;22.37;14.13;;;2.10;92.00;;;;;;6276314;22;20083;-88
2021/01/17 06:44:05;;;;;;;22.58;13.98;;;2.10;92.00;;;;;;6250778;22;20231;-88
2021/01/17 06:46:46;;;;;;;22.02;13.75;;;2.10;92.00;;;;;;6275475;22;20444;-90
2021/01/17 06:49:35;;;;;;;21.80;13.50;;;2.10;92.00;;;;;;6276580;22;20049;-88
2021/01/17 06:52:14;;;;;;;23.20;14.38;;;2.10;92.10;;;;;;6275344;22;20000;-88
2021/01/17 06:55:29;;;;;;;20.40;13.48;;;2.10;92.10;;;;;;6275892;22;20056;-88
2021/01/17 06:58:10;;;;;;;22.70;13.98;;;2.10;92.10;;;;;;6275663;22;20004;-89
2021/01/17 07:00:44;;;;;;;23.13;13.97;;;2.10;92.10;;;;;;6252113;22;20015;-89
2021/01/17 07:03:31;;;;;;;21.05;13.68;;;2.10;92.10;;;;;;6275223;22;20284;-87
2021/01/17 07:06:39;;;;;;;22.00;14.55;;;2.10;92.10;;;;;;6277020;22;20010;-88
2021/01/17 07:09:25;;;;;;;23.50;14.38;;;2.10;92.10;;;;;;6276946;22;20000;-90
2021/01/17 07:12:50;;;;;;;22.02;13.30;;;2.10;92.10;;;;;;6275017;22;20008;-89
2021/01/17 07:15:35;;;;;;;;;;;;;;;;;;;;;
2021/01/17 07:18:56;;;;;;;;;;;;;;;;;;;;;
2021/01/17 07:21:50;;;;;;;23.77;14.98;;;2.10;92.20;;;;;;6249260;22;20094;-88
2021/01/17 07:24:22;;;;;;;23.77;14.00;;;2.10;92.20;;;;;;6267100;22;20062;-87
2021/01/17 07:27:17;;;;;;;22.42;14.32;;;2.10;92.20;;;;;;6277554;22;20004;-88
2021/01/17 07:33:19;;;;;;;;;;;;;;;;;;;;;
2021/01/17 07:37:17;;;;;;;;;;;;;;;;;;;;;
2021/01/17 07:39:29;;;;;;;;;;;;;;;;;;;;;
2021/01/17 07:43:04;;;;;;;;;;;;;;;;;;;;;
2021/01/17 07:46:12;;;;;;;22.52;13.68;;;2.10;92.20;;;;;;6266024;22;20495;-91
2021/01/17 07:49:32;;;;;;;;;;;;;;;;;;;;;
2021/01/17 07:52:54;;;;;;;22.05;12.48;;;2.10;92.20;;;;;;6245889;22;20358;-90
2021/01/17 07:59:28;;;;;;;29.13;14.88;;;2.10;92.20;;;;;;6232370;22;20014;-90
2021/01/17 08:02:45;;;;;;;25.10;14.10;;;2.10;92.20;;;;;;6155223;22;20013;-89
2021/01/17 08:06:22;;;;;;;;;;;;;;;;;;;;;
2021/01/17 08:09:32;;;;;;;25.98;14.93;;;2.20;92.30;;;;;;6185972;23;20093;-89
2021/01/17 08:12:57;;;;;;;29.73;16.27;;;2.20;92.30;;;;;;6183688;23;20009;-92
2021/01/17 08:16:20;;;;;;;;;;;;;;;;;;;;;
2021/01/17 08:19:54;;;;;;;;;;;;;;;;;;;;;
2021/01/17 08:22:56;;;;;;;32.03;17.10;;;2.20;92.40;;;;;;6162971;23;20024;-90
2021/01/17 08:46:44;;;;;;;;;;;;;;;;;;;;;
2021/01/17 10:02:54;;;;;;;42.13;21.85;;;2.90;92.80;;;;;;6282647;22;20015;-95
2021/01/17 15:49:29;;;;;;;9.07;2.03;;;6.00;93.10;;;;;;6307303;22;20023;-92
2021/01/17 16:17:09;;;;;;;4.13;1.55;;;5.60;93.00;;;;;;6258091;22;20026;-88
2021/01/17 16:20:36;;;;;;;4.03;1.80;;;5.50;93.00;;;;;;6256188;22;20035;-89
2021/01/17 16:23:18;;;;;;;3.22;1.50;;;5.50;93.00;;;;;;6298903;22;20011;-86
2021/01/17 16:25:51;;;;;;;2.97;1.70;;;5.50;93.00;;;;;;6257148;22;20006;-87
2021/01/17 16:28:33;;;;;;;4.90;1.70;;;5.50;93.00;;;;;;6279969;22;20008;-87
2021/01/17 16:31:04;;;;;;;4.03;1.80;;;5.40;93.00;;;;;;6256499;22;20104;-87
2021/01/17 16:33:54;;;;;;;;;;;;;;;;;;;;;
2021/01/17 16:40:19;;;;;;;3.10;1.52;;;5.40;93.00;;;;;;6222288;23;20022;-91
2021/01/17 16:42:48;;;;;;;3.78;1.50;;;5.40;93.00;;;;;;6190281;23;20764;-89
2021/01/17 16:45:27;;;;;;;;;;;;;;;;;;;;;
2021/01/17 16:48:26;;;;;;;;;;;;;;;;;;;;;
2021/01/17 16:51:34;;;;;;;5.22;1.75;;;5.40;93.00;;;;;;6297562;22;20106;-90
2021/01/17 16:54:35;;;;;;;6.30;2.20;;;5.40;93.10;;;;;;6227071;22;20003;-89
2021/01/17 16:57:58;;;;;;;4.78;2.97;;;5.40;93.10;;;;;;6222264;22;20432;-92
2021/01/17 17:00:45;;;;;;;;;;;;;;;;;;;;;
2021/01/17 17:03:33;;;;;;;;;;;;;;;;;;;;;
2021/01/17 17:06:17;;;;;;;;;;;;;;;;;;;;;
2021/01/17 17:08:56;;;;;;;;;;;;;;;;;;;;;
2021/01/17 17:11:34;;;;;;;8.60;5.22;;;5.40;93.10;;;;;;6306931;22;20082;-88
2021/01/17 17:14:17;;;;;;;6.97;4.75;;;5.40;93.10;;;;;;6279328;22;20022;-88
2021/01/17 17:16:51;;;;;;;8.63;5.20;;;5.40;93.10;;;;;;6278208;22;20007;-89
2021/01/17 17:19:31;;;;;;;7.93;4.00;;;5.40;93.10;;;;;;6254439;22;20027;-88
2021/01/17 17:22:06;;;;;;;8.52;4.63;;;5.40;93.10;;;;;;6278373;22;20015;-90
2021/01/17 17:24:43;;;;;;;6.50;3.78;;;5.40;93.10;;;;;;6280094;22;20007;-89
2021/01/17 17:27:12;;;;;;;6.35;3.28;;;5.30;93.10;;;;;;6256446;22;19999;-88
2021/01/17 17:29:59;;;;;;;10.85;6.18;;;5.40;93.10;;;;;;6308134;22;19995;-89
2021/01/17 17:32:25;;;;;;;12.85;6.65;;;5.30;93.10;;;;;;6280415;22;20332;-89
2021/01/17 17:35:24;;;;;;;14.50;7.32;;;5.30;93.10;;;;;;6243116;23;20011;-90
2021/01/17 17:37:55;;;;;;;10.45;5.50;;;5.30;93.10;;;;;;6217734;23;20446;-87
2021/01/17 17:40:50;;;;;;;21.88;10.43;;;5.30;93.10;;;;;;6218554;23;20079;-88
2021/01/17 17:43:26;;;;;;;26.02;14.75;;;5.30;93.10;;;;;;6216970;23;20095;-90
2021/01/17 17:46:00;;;;;;;23.30;11.98;;;5.30;93.10;;;;;;6192713;23;20107;-91
2021/01/17 17:48:29;;;;;;;14.75;8.60;;;5.30;93.10;;;;;;6217003;23;20039;-88
2021/01/17 17:51:15;;;;;;;14.20;6.97;;;5.20;93.10;;;;;;6216607;23;20445;-89
2021/01/17 17:53:54;;;;;;;10.35;4.78;;;5.20;93.10;;;;;;6217650;23;20000;-89
2021/01/17 17:59:16;;;;;;;;;;;;;;;;;;;;;
2021/01/17 18:02:12;;;;;;;8.25;2.80;;;5.10;93.30;;;;;;6243038;23;20091;-88
2021/01/17 18:04:50;;;;;;;5.90;2.90;;;5.00;93.20;;;;;;6234372;23;20352;-89
2021/01/17 18:07:18;;;;;;;5.97;2.50;;;5.00;93.00;;;;;;6192994;23;20012;-89
2021/01/17 18:09:50;;;;;;;5.63;2.47;;;5.00;93.00;;;;;;6192500;23;20039;-88
2021/01/17 18:12:23;;;;;;;;;;;5.00;93.20;;;;;;6215183;22;20018;-88
2021/01/17 18:14:50;;;;;;;4.70;2.28;;;4.90;93.00;;;;;;6279781;22;19907;-88
2021/01/17 18:17:35;;;;;;;;;;;;;;;;;;;;;
2021/01/17 18:20:29;;;;;;;4.93;2.22;;;4.90;93.00;;;;;;6307449;22;20087;-88
2021/01/17 18:23:15;;;;;;;;;;;;;;;;;;;;;
2021/01/17 18:26:11;;;;;;;7.75;2.63;;;4.90;93.00;;;;;;6274049;22;20005;-88
2021/01/17 18:28:44;;;;;;;8.95;2.50;;;4.90;93.00;;;;;;6272489;22;20098;-90
2021/01/17 18:31:30;;;;;;;;;;;;;;;;;;;;;
2021/01/17 18:34:07;;;;;;;12.40;3.67;;;4.90;93.00;;;;;;6281198;22;20095;-91
2021/01/17 18:36:53;;;;;;;6.18;2.97;;;4.90;93.00;;;;;;6277915;22;20006;-89
2021/01/17 18:39:31;;;;;;;9.23;3.13;;;4.90;93.00;;;;;;6253097;22;20068;-90
2021/01/17 18:42:06;;;;;;;10.50;3.75;;;4.90;93.00;;;;;;6276964;22;20007;-88
2021/01/17 18:44:47;;;;;;;;;;;;;;;;;;;;;
2021/01/17 18:47:25;;;;;;;8.07;3.45;;;4.90;93.10;;;;;;6282360;22;20121;-89
2021/01/17 18:50:05;;;;;;;;;;;;;;;;;;;;;
2021/01/17 18:52:44;;;;;;;;;;;;;;;;;;;;;
2021/01/17 18:55:50;;;;;;;8.05;3.58;;;4.90;93.10;;;;;;6308622;22;20074;-90
2021/01/17 18:58:21;;;;;;;9.00;3.67;;;4.80;93.10;;;;;;6276032;22;20007;-88
2021/01/17 19:08:10;;;;;;;;;;;;;;;;;;;;;
2021/01/17 19:13:56;;;;;;;8.10;2.88;;;4.70;93.00;;;;;;6243455;22;20039;-88
2021/01/17 19:16:42;;;;;;;7.53;2.80;;;4.60;93.00;;;;;;6256143;22;20003;-88
2021/01/17 19:19:19;;;;;;;7.28;2.95;;;4.60;93.00;;;;;;6275725;22;20417;-89
2021/01/17 19:22:16;;;;;;;;;;;;;;;;;;;;;
2021/01/17 19:24:49;;;;;;;9.18;2.40;;;4.60;93.00;;;;;;6276533;22;20501;-89
2021/01/17 19:27:49;;;;;;;8.13;3.13;;;4.50;93.00;;;;;;6276968;22;20000;-89
2021/01/17 19:30:44;;;;;;;11.98;3.50;;;4.50;93.00;;;;;;6276582;22;20070;-91
2021/01/17 19:33:22;;;;;;;;;;;;;;;;;;;;;
2021/01/17 19:35:54;;;;;;;11.55;2.85;;;4.50;93.00;;;;;;6278415;22;20412;-90
2021/01/17 19:39:38;;;;;;;;;;;;;;;;;;;;;
2021/01/17 19:41:46;;;;;;;9.52;3.03;;;4.40;93.00;;;;;;6260828;22;20303;-89
2021/01/17 19:44:42;;;;;;;7.55;3.25;;;4.40;93.00;;;;;;6276314;22;20010;-88
2021/01/17 19:47:25;;;;;;;11.15;3.08;;;4.40;93.00;;;;;;6277314;22;20086;-89
2021/01/17 19:50:14;;;;;;;11.63;3.85;;;4.40;93.10;;;;;;6253261;22;20014;-89
2021/01/17 19:52:47;;;;;;;7.35;3.67;;;4.40;93.10;;;;;;6276327;22;20069;-89
2021/01/17 19:55:29;;;;;;;10.00;3.30;;;4.30;93.10;;;;;;6252033;22;20330;-88
2021/01/17 19:58:11;;;;;;;12.05;4.22;;;4.30;93.10;;;;;;6253347;22;20062;-91
2021/01/17 20:00:39;;;;;;;10.00;4.00;;;4.30;93.10;;;;;;6276515;22;20004;-88
2021/01/17 20:03:16;;;;;;;15.70;4.47;;;4.40;93.10;;;;;;6276515;22;20011;-89
2021/01/17 20:06:04;;;;;;;;;;;;;;;;;;;;;
2021/01/17 20:08:45;;;;;;;14.43;4.65;;;4.40;93.20;;;;;;6278047;22;20383;-88
2021/01/17 20:11:34;;;;;;;12.27;4.03;;;4.40;93.20;;;;;;6276233;22;20030;-88
2021/01/17 20:17:21;;;;;;;;;;;;;;;;;;;;;
2021/01/17 20:20:02;;;;;;;16.15;3.97;;;4.40;93.20;;;;;;6307434;22;20082;-89
2021/01/17 20:25:49;;;;;;;11.88;4.03;;;4.40;93.20;;;;;;6308644;22;20222;-89
2021/01/17 20:28:29;;;;;;;;;;;;;;;;;;;;;
2021/01/17 20:31:21;;;;;;;11.95;3.88;;;4.40;93.20;;;;;;6261102;22;20074;-89
2021/01/17 20:34:03;;;;;;;;;;;;;;;;;;;;;
2021/01/17 20:36:33;;;;;;;;;;;4.30;93.30;;;;;;6308120;22;20066;-91
2021/01/17 20:39:19;;;;;;;;;;;;;;;;;;;;;
2021/01/17 20:41:51;;;;;;;10.65;3.58;;;4.30;93.30;;;;;;6308593;22;20107;-88
2021/01/17 20:44:29;;;;;;;;;;;;;;;;;;;;;
2021/01/17 20:47:26;;;;;;;12.00;4.40;;;4.30;93.30;;;;;;6283271;22;19973;-87
2021/01/17 20:49:59;;;;;;;11.02;4.10;;;4.30;93.30;;;;;;6307743;22;20013;-88
2021/01/17 20:52:53;;;;;;;10.73;4.28;;;4.20;93.30;;;;;;6279994;22;20007;-91
2021/01/17 20:55:37;;;;;;;;;;;;;;;;;;;;;
2021/01/17 20:59:08;;;;;;;11.65;4.38;;;4.20;93.30;;;;;;6307580;22;20082;-87
2021/01/17 21:01:45;;;;;;;14.55;4.10;;;4.20;93.30;;;;;;6306592;22;20003;-88
2021/01/17 21:04:17;;;;;;;12.75;4.47;;;4.20;93.30;;;;;;6308408;22;19995;-88
2021/01/17 21:07:10;;;;;;;;;;;;;;;;;;;;;
2021/01/17 21:09:41;;;;;;;15.38;4.20;;;4.20;93.40;;;;;;6306921;22;20090;-87
2021/01/17 21:15:21;;;;;;;;;;;4.20;93.40;;;;;;6307463;22;20072;-87
2021/01/17 21:21:28;;;;;;;;;;;;;;;;;;;;;
2021/01/17 21:24:27;;;;;;;14.00;4.50;;;4.20;93.30;;;;;;6306606;22;20090;-88
2021/01/17 21:27:52;;;;;;;;;;;;;;;;;;;;;
2021/01/17 21:31:03;;;;;;;;;;;;;;;;;;;;;
2021/01/17 21:34:05;;;;;;;;;;;;;;;;;;;;;
2021/01/17 21:39:49;;;;;;;14.88;4.43;;;4.20;93.40;;;;;;6242613;22;20005;-89
2021/01/17 21:42:45;;;;;;;;;;;;;;;;;;;;;
2021/01/17 21:46:05;;;;;;;;;;;;;;;;;;;;;
2021/01/17 21:48:19;;;;;;;11.38;4.10;;;4.20;93.40;;;;;;6291477;22;20003;-86
2021/01/17 21:58:08;;;;;;;14.67;4.70;;;4.30;93.40;;;;;;6139114;23;20033;-88
2021/01/17 22:00:36;;;;;;;9.73;3.70;;;4.30;93.40;;;;;;6154031;22;20003;-88
2021/01/17 22:03:51;;;;;;;13.35;3.65;;;4.30;93.40;;;;;;6254582;22;20015;-88
2021/01/17 22:06:44;;;;;;;;;;;;;;;;;;;;;
2021/01/17 22:09:41;;;;;;;;;;;;;;;;;;;;;
2021/01/17 22:12:17;;;;;;;10.00;3.70;;;4.30;93.40;;;;;;6303512;22;20000;-88
2021/01/17 22:15:14;;;;;;;12.88;3.55;;;4.30;93.40;;;;;;6307376;22;20003;-88
2021/01/17 22:18:07;;;;;;;;;;;;;;;;;;;;;
2021/01/17 22:20:59;;;;;;;11.90;3.10;;;4.30;93.50;;;;;;6275933;22;20102;-87
2021/01/17 22:23:47;;;;;;;11.23;3.65;;;4.30;93.50;;;;;;6247274;22;20043;-87
2021/01/17 22:26:36;;;;;;;13.02;3.92;;;4.30;93.50;;;;;;6249683;22;20000;-88
2021/01/17 22:29:28;;;;;;;12.48;3.38;;;4.30;93.50;;;;;;6274465;22;20451;-87
2021/01/17 22:32:17;;;;;;;13.05;3.35;;;4.30;93.50;;;;;;6227454;22;20095;-87
2021/01/17 22:34:55;;;;;;;;;;;;;;;;;;;;;
2021/01/17 22:40:29;;;;;;;16.13;3.72;;;4.40;93.50;;;;;;6275666;22;20387;-89
2021/01/17 22:43:06;;;;;;;12.07;3.55;;;4.40;93.50;;;;;;6249137;22;20015;-87
2021/01/17 22:45:45;;;;;;;;;;;;;;;;;;;;;
2021/01/17 22:48:23;;;;;;;;;;;;;;;;;;;;;
2021/01/17 22:51:08;;;;;;;16.58;4.18;;;4.40;93.50;;;;;;6251221;22;20075;-87
2021/01/17 22:56:38;;;;;;;11.07;3.45;;;4.40;93.50;;;;;;6253857;22;20011;-87
2021/01/17 22:59:26;;;;;;;12.57;3.38;;;4.40;93.50;;;;;;6249891;22;20010;-88
2021/01/17 23:01:58;;;;;;;10.18;3.05;;;4.50;93.50;;;;;;6249016;22;20022;-87
2021/01/17 23:04:29;;;;;;;;;;;4.50;93.50;;;;;;6250972;22;20015;-89
2021/01/17 23:07:14;;;;;;;13.50;3.00;;;4.50;93.50;;;;;;6276017;22;20187;-88
2021/01/17 23:10:00;;;;;;;14.05;3.83;;;4.50;93.50;;;;;;6275729;22;20023;-88
2021/01/17 23:13:05;;;;;;;;;;;;;;;;;;;;;
2021/01/17 23:15:53;;;;;;;10.15;3.35;;;4.50;93.50;;;;;;6271521;22;20095;-87
2021/01/17 23:18:26;;;;;;;13.05;3.17;;;4.50;93.50;;;;;;6253766;22;20008;-88
2021/01/17 23:21:45;;;;;;;;;;;;;;;;;;;;;
2021/01/17 23:24:31;;;;;;;15.20;4.00;;;4.50;93.60;;;;;;6293132;22;20095;-88
2021/01/17 23:27:07;;;;;;;12.95;3.45;;;4.50;93.60;;;;;;6280039;22;19999;-88
2021/01/17 23:29:43;;;;;;;10.20;3.25;;;4.50;93.60;;;;;;6256227;22;20447;-88
2021/01/17 23:32:37;;;;;;;15.40;3.72;;;4.50;93.50;;;;;;6254127;22;20094;-87
2021/01/17 23:35:23;;;;;;;11.27;3.17;;;4.50;93.50;;;;;;6252709;22;20003;-88
2021/01/17 23:38:00;;;;;;;9.68;3.42;;;4.40;93.50;;;;;;6282744;22;20027;-87
2021/01/17 23:40:48;;;;;;;11.85;3.60;;;4.40;93.50;;;;;;6278823;22;20066;-87
2021/01/17 23:43:29;;;;;;;;;;;;;;;;;;;;;
2021/01/17 23:46:15;;;;;;;14.88;4.10;;;4.40;93.50;;;;;;6306464;22;20162;-88
2021/01/17 23:48:53;;;;;;;11.43;3.97;;;4.30;93.40;;;;;;6255751;22;19999;-87
2021/01/17 23:51:45;;;;;;;13.90;3.75;;;4.30;93.40;;;;;;6283760;22;20086;-87
2021/01/17 23:57:29;;;;;;;10.38;4.20;;;4.20;93.40;;;;;;6292094;22;20007;-87
